Time;durP1;ratioP1;P1;durP2;ratioP2;P2;SDS_P1;SDS_P2;PMS_P1;PMS_P2;Temp;Humidity;BMP_temperature;BMP_pressure;BME280_temperature;BME280_humidity;BME280_pressure;Samples;Min_cycle;Max_cycle;Signal;HPM_P1;HPM_P2
2023/07/22 00:02:30;;;;;;;;;;;;;;;;;;;;;
2023/07/22 00:04:56;;;;;;;0.10;0.10;;;;;;;16.30;71.39;100327.53;7349797;19;20714;-65
2023/07/22 00:07:21;;;;;;;0.10;0.10;;;;;;;16.27;71.53;100327.72;7354290;19;20038;-65
2023/07/22 00:09:49;;;;;;;0.00;0.00;;;;;;;16.21;72.45;100322.75;7344046;19;20039;-66
2023/07/22 00:12:15;;;;;;;0.00;0.00;;;;;;;16.17;71.55;100318.59;7355728;19;20302;-65
2023/07/22 00:14:44;;;;;;;0.10;0.10;;;;;;;16.12;72.57;100320.63;7352337;19;20475;-65
2023/07/22 00:17:09;;;;;;;0.00;0.00;;;;;;;16.06;73.14;100308.59;7354870;19;20010;-67
2023/07/22 00:19:35;;;;;;;0.03;0.03;;;;;;;16.02;72.00;100306.22;7352316;19;20007;-67
2023/07/22 00:22:01;;;;;;;0.10;0.10;;;;;;;15.76;72.58;100279.44;7354103;19;20031;-67
2023/07/22 00:24:26;;;;;;;0.00;0.00;;;;;;;15.90;71.98;100306.81;7355475;19;20055;-68
2023/07/22 00:26:52;;;;;;;0.10;0.10;;;;;;;15.88;73.40;100299.00;7351183;19;20473;-67
2023/07/22 00:29:17;;;;;;;0.10;0.10;;;;;;;15.85;73.15;100287.78;7353375;19;20017;-66
2023/07/22 00:31:43;;;;;;;0.10;0.10;;;;;;;15.81;73.70;100287.06;7353523;19;20602;-66
2023/07/22 00:34:11;;;;;;;0.10;0.10;;;;;;;15.77;72.77;100286.41;7353735;19;20007;-65
2023/07/22 00:36:39;;;;;;;;;;;;;;;15.78;69.44;100293.38;7353199;19;20326;-66
2023/07/22 00:39:05;;;;;;;0.10;0.10;;;;;;;15.73;74.18;100282.22;7349107;19;20120;-65
2023/07/22 00:41:30;;;;;;;0.10;0.10;;;;;;;15.71;73.65;100283.19;7353385;19;20027;-66
2023/07/22 00:43:56;;;;;;;0.10;0.10;;;;;;;15.68;73.05;100284.22;7350012;19;20086;-65
2023/07/22 00:46:22;;;;;;;0.00;0.00;;;;;;;15.65;74.10;100271.22;7345743;19;20014;-65
2023/07/22 00:48:48;;;;;;;0.10;0.10;;;;;;;15.63;74.58;100266.94;7355267;19;20010;-65
2023/07/22 00:51:14;;;;;;;0.05;0.05;;;;;;;15.64;74.82;100264.25;7350107;19;20010;-66
2023/07/22 00:53:46;;;;;;;0.00;0.00;;;;;;;15.63;74.78;100257.28;7354244;19;20003;-65
2023/07/22 00:56:12;;;;;;;0.00;0.00;;;;;;;15.64;74.23;100258.97;7334847;19;20721;-65
2023/07/22 00:58:38;;;;;;;0.10;0.10;;;;;;;15.63;74.77;100246.75;7349812;19;20018;-65
2023/07/22 01:01:03;;;;;;;0.10;0.10;;;;;;;15.57;74.82;100236.50;7344510;19;20042;-65
2023/07/22 01:03:29;;;;;;;0.00;0.00;;;;;;;15.64;74.44;100237.94;7353978;19;20042;-65
2023/07/22 01:05:55;;;;;;;0.10;0.10;;;;;;;15.64;75.00;100240.56;7344715;19;20478;-65
2023/07/22 01:08:20;;;;;;;0.10;0.10;;;;;;;15.64;74.30;100222.13;7351858;19;20035;-65
2023/07/22 01:10:46;;;;;;;0.10;0.10;;;;;;;15.64;74.19;100214.22;7350335;19;20042;-65
2023/07/22 01:13:11;;;;;;;0.10;0.10;;;;;;;15.64;75.58;100213.38;7348739;19;20022;-66
2023/07/22 01:15:40;;;;;;;0.10;0.10;;;;;;;15.63;74.68;100212.53;7347282;19;20070;-65
2023/07/22 01:18:06;;;;;;;0.10;0.10;;;;;;;15.65;75.44;100212.44;7350651;19;20030;-65
2023/07/22 01:20:32;;;;;;;0.10;0.10;;;;;;;15.62;75.80;100202.91;7349445;19;20010;-65
2023/07/22 01:22:58;;;;;;;0.10;0.10;;;;;;;15.65;75.80;100200.13;7352458;19;20013;-65
2023/07/22 01:25:24;;;;;;;0.00;0.00;;;;;;;15.66;75.30;100209.75;7351905;19;20010;-66
2023/07/22 01:27:52;;;;;;;0.00;0.00;;;;;;;15.70;75.84;100199.91;7342748;19;20014;-65
2023/07/22 01:30:19;;;;;;;0.10;0.10;;;;;;;15.70;74.79;100202.53;7349042;19;20010;-66
2023/07/22 01:32:45;;;;;;;0.10;0.10;;;;;;;15.69;75.63;100190.31;7352546;19;20049;-65
2023/07/22 01:35:13;;;;;;;0.10;0.10;;;;;;;15.71;75.49;100191.94;7354132;19;20963;-66
2023/07/22 01:37:39;;;;;;;0.10;0.10;;;;;;;15.71;76.35;100186.69;7346411;19;20023;-66
2023/07/22 01:40:11;;;;;;;0.10;0.10;;;;;;;15.73;76.24;100184.81;7351623;19;20594;-66
2023/07/22 01:42:43;;;;;;;0.05;0.05;;;;;;;15.76;75.50;100179.41;7349329;19;20041;-66
2023/07/22 01:45:09;;;;;;;0.10;0.10;;;;;;;15.72;75.88;100167.31;7346174;19;20474;-66
2023/07/22 01:47:37;;;;;;;0.10;0.10;;;;;;;15.77;75.45;100170.56;7345213;19;20802;-66
2023/07/22 01:50:04;;;;;;;0.05;0.05;;;;;;;15.78;76.30;100167.00;7347195;19;20010;-67
2023/07/22 01:52:30;;;;;;;0.10;0.10;;;;;;;15.78;75.87;100151.19;7347019;19;20054;-64
2023/07/22 01:54:55;;;;;;;0.10;0.10;;;;;;;15.66;76.62;100136.06;7353860;19;20002;-66
2023/07/22 01:57:21;;;;;;;0.10;0.10;;;;;;;15.79;76.14;100155.53;7352370;19;20371;-65
2023/07/22 01:59:46;;;;;;;0.00;0.00;;;;;;;15.81;76.69;100144.91;7345025;19;20042;-66
2023/07/22 02:02:12;;;;;;;0.00;0.00;;;;;;;15.81;75.38;100137.88;7353404;19;20021;-66
2023/07/22 02:04:37;;;;;;;0.10;0.10;;;;;;;15.81;76.17;100129.97;7348077;19;20437;-66
2023/07/22 02:07:03;;;;;;;0.10;0.10;;;;;;;15.78;75.96;100114.34;7348123;19;20014;-66
2023/07/22 02:09:28;;;;;;;0.00;0.00;;;;;;;15.82;76.39;100115.88;7351133;19;20041;-66
2023/07/22 02:11:54;;;;;;;0.10;0.10;;;;;;;15.72;75.93;100100.66;7353702;19;20835;-65
2023/07/22 02:14:19;;;;;;;0.05;0.05;;;;;;;15.82;76.34;100117.66;7359943;19;20510;-65
2023/07/22 02:16:44;;;;;;;0.05;0.05;;;;;;;15.81;75.29;100114.19;7358383;19;20021;-66
2023/07/22 02:19:10;;;;;;;0.10;0.10;;;;;;;15.80;75.51;100112.47;7354494;19;20090;-65
2023/07/22 02:21:35;;;;;;;0.10;0.10;;;;;;;15.80;75.65;100104.56;7359427;19;20018;-65
2023/07/22 02:24:08;;;;;;;0.10;0.10;;;;;;;15.77;76.17;100096.84;7350492;19;20834;-65
2023/07/22 02:26:33;;;;;;;0.10;0.10;;;;;;;15.77;75.20;100099.47;7344384;19;20094;-66
2023/07/22 02:28:59;;;;;;;0.00;0.00;;;;;;;15.77;75.58;100096.84;7356007;19;20578;-65
2023/07/22 02:31:25;;;;;;;0.10;0.10;;;;;;;15.75;76.38;100095.22;7354189;19;20014;-65
2023/07/22 02:33:50;;;;;;;0.10;0.10;;;;;;;15.73;75.52;100090.03;7358373;19;20014;-65
2023/07/22 02:36:16;;;;;;;0.10;0.10;;;;;;;15.72;76.23;100083.09;7359034;19;20070;-65
2023/07/22 02:38:41;;;;;;;0.10;0.10;;;;;;;15.67;75.52;100073.75;7353224;19;20006;-65
2023/07/22 02:41:07;;;;;;;0.10;0.10;;;;;;;15.71;76.01;100073.50;7357507;19;20015;-65
2023/07/22 02:43:34;;;;;;;0.10;0.10;;;;;;;15.66;76.25;100059.72;7355836;19;20493;-66
2023/07/22 02:46:05;;;;;;;0.10;0.10;;;;;;;15.72;76.36;100059.38;7329705;19;20463;-65
2023/07/22 02:48:31;;;;;;;0.10;0.10;;;;;;;15.70;76.15;100063.88;7359735;19;20514;-66
2023/07/22 02:51:05;;;;;;;0.08;0.08;;;;;;;15.70;75.86;100058.59;7357931;19;20583;-65
2023/07/22 02:53:32;;;;;;;0.10;0.10;;;;;;;15.70;76.04;100063.03;7349793;19;20018;-65
2023/07/22 02:55:59;;;;;;;0.05;0.05;;;;;;;15.67;76.02;100050.91;7348156;19;20018;-65
2023/07/22 02:58:24;;;;;;;0.10;0.10;;;;;;;15.54;76.52;100034.03;7356579;19;20017;-65
2023/07/22 03:00:50;;;;;;;0.00;0.00;;;;;;;15.67;75.89;100048.25;7354046;19;20010;-64
2023/07/22 03:03:15;;;;;;;0.00;0.00;;;;;;;15.66;76.51;100043.94;7354668;19;20074;-65
2023/07/22 03:05:41;;;;;;;0.10;0.10;;;;;;;15.67;76.90;100048.25;7357972;19;20035;-62
2023/07/22 03:08:09;;;;;;;0.10;0.10;;;;;;;15.68;76.79;100047.31;7359365;19;20037;-65
2023/07/22 03:10:34;;;;;;;0.00;0.00;;;;;;;15.67;76.82;100048.25;7354889;19;20010;-66
2023/07/22 03:13:03;;;;;;;0.05;0.05;;;;;;;15.68;75.92;100039.44;7350637;19;20070;-66
2023/07/22 03:15:30;;;;;;;0.10;0.10;;;;;;;15.65;76.83;100034.31;7359053;19;20036;-65
2023/07/22 03:17:56;;;;;;;0.03;0.03;;;;;;;15.65;76.58;100039.59;7352314;19;20021;-65
2023/07/22 03:20:27;;;;;;;0.10;0.10;;;;;;;15.67;76.26;100027.22;7332603;19;20086;-65
2023/07/22 03:22:55;;;;;;;0.00;0.00;;;;;;;15.66;76.13;100036.03;7356310;19;20002;-65
2023/07/22 03:25:21;;;;;;;0.10;0.10;;;;;;;15.64;76.99;100027.38;7356335;19;20037;-64
2023/07/22 03:27:46;;;;;;;0.00;0.00;;;;;;;15.62;77.31;100021.31;7352987;19;20022;-66
2023/07/22 03:30:14;;;;;;;0.00;0.00;;;;;;;15.62;77.07;100018.69;7347434;19;20010;-64
2023/07/22 03:32:42;;;;;;;0.05;0.05;;;;;;;15.62;76.54;100018.69;7358872;19;20014;-65
2023/07/22 03:35:09;;;;;;;0.10;0.10;;;;;;;15.47;76.44;99988.78;7350318;19;20019;-65
2023/07/22 03:37:36;;;;;;;0.08;0.08;;;;;;;15.62;76.02;100016.06;7357374;19;20159;-64
2023/07/22 03:40:02;;;;;;;0.10;0.10;;;;;;;15.61;76.72;100016.97;7357467;19;20070;-66
2023/07/22 03:42:29;;;;;;;0.10;0.10;;;;;;;15.61;76.49;100005.56;7353281;19;20098;-66
2023/07/22 03:44:55;;;;;;;0.10;0.10;;;;;;;15.60;77.43;100009.16;7358826;19;20487;-66
2023/07/22 03:47:22;;;;;;;0.10;0.10;;;;;;;15.60;77.13;100004.72;7351746;19;20015;-65
2023/07/22 03:49:48;;;;;;;0.03;0.03;;;;;;;15.57;76.78;100011.03;7356761;19;20490;-65
2023/07/22 03:52:14;;;;;;;0.10;0.10;;;;;;;15.59;77.22;100003.03;7358192;19;20010;-66
2023/07/22 03:54:40;;;;;;;0.00;0.00;;;;;;;15.59;77.60;100003.03;7357370;19;20035;-65
2023/07/22 03:57:06;;;;;;;0.10;0.10;;;;;;;15.56;77.49;99987.41;7358353;19;20094;-66
2023/07/22 03:59:31;;;;;;;0.10;0.10;;;;;;;15.60;77.90;99988.94;7355009;19;20006;-65
2023/07/22 04:01:57;;;;;;;0.08;0.08;;;;;;;15.60;77.52;99983.69;7358513;19;20474;-65
2023/07/22 04:04:22;;;;;;;0.10;0.10;;;;;;;15.61;77.60;99979.25;7352529;19;20022;-65
2023/07/22 04:06:48;;;;;;;0.10;0.10;;;;;;;15.57;78.09;99968.94;7351701;19;20018;-65
2023/07/22 04:09:13;;;;;;;0.10;0.10;;;;;;;15.63;76.83;99977.41;7355739;19;20010;-65
2023/07/22 04:11:38;;;;;;;0.10;0.10;;;;;;;15.64;76.97;99969.47;7358870;19;20466;-66
2023/07/22 04:14:04;;;;;;;0.03;0.03;;;;;;;15.64;77.67;99969.47;7355171;19;20093;-65
2023/07/22 04:16:31;;;;;;;0.10;0.10;;;;;;;15.64;78.03;99969.47;7361610;19;20003;-65
2023/07/22 04:18:57;;;;;;;0.10;0.10;;;;;;;15.65;77.39;99962.41;7354209;19;20002;-64
2023/07/22 04:21:22;;;;;;;0.00;0.00;;;;;;;15.65;78.01;99955.34;7357927;19;20014;-65
2023/07/22 04:23:49;;;;;;;0.10;0.10;;;;;;;15.67;77.66;99953.50;7353195;19;20463;-66
2023/07/22 04:26:14;;;;;;;0.03;0.03;;;;;;;15.56;77.24;99942.66;7358088;19;20466;-66
2023/07/22 04:28:42;;;;;;;0.10;0.10;;;;;;;15.60;77.68;99935.47;7350581;19;20066;-66
2023/07/22 04:31:09;;;;;;;0.10;0.10;;;;;;;15.68;77.35;99939.41;7356455;19;20022;-65
2023/07/22 04:33:34;;;;;;;0.10;0.10;;;;;;;15.67;77.57;99935.09;7356459;19;20022;-64
2023/07/22 04:36:00;;;;;;;0.10;0.10;;;;;;;15.68;77.50;99939.41;7350300;19;20037;-65
2023/07/22 04:38:26;;;;;;;0.10;0.10;;;;;;;15.56;77.66;99924.25;7355235;19;20042;-65
2023/07/22 04:40:54;;;;;;;0.05;0.05;;;;;;;15.66;78.06;99936.03;7353898;19;20018;-66
2023/07/22 04:43:19;;;;;;;0.00;0.00;;;;;;;15.68;77.95;99939.41;7357474;19;20544;-65
2023/07/22 04:45:47;;;;;;;0.10;0.10;;;;;;;15.68;77.95;99946.47;7338988;19;20082;-66
2023/07/22 04:48:15;;;;;;;0.05;0.05;;;;;;;15.72;77.74;99935.69;7352805;19;20458;-66
2023/07/22 04:50:40;;;;;;;0.10;0.10;;;;;;;15.73;77.91;99936.53;7350927;19;20513;-65
2023/07/22 04:53:07;;;;;;;0.10;0.10;;;;;;;15.74;78.00;99931.16;7357586;19;20025;-66
2023/07/22 04:55:33;;;;;;;0.10;0.10;;;;;;;15.35;78.33;99862.31;7356219;19;20022;-65
2023/07/22 04:57:58;;;;;;;0.10;0.10;;;;;;;15.76;78.10;99934.56;7354143;19;20352;-66
2023/07/22 05:00:23;;;;;;;0.10;0.10;;;;;;;15.79;78.30;99931.75;7353499;19;20007;-65
2023/07/22 05:02:49;;;;;;;0.03;0.03;;;;;;;15.81;78.51;99929.91;7353524;19;20838;-65
2023/07/22 05:05:16;;;;;;;0.10;0.10;;;;;;;15.83;78.75;99921.91;7351012;19;20357;-66
2023/07/22 05:07:42;;;;;;;0.10;0.10;;;;;;;15.83;78.78;99922.75;7355995;19;20034;-65
2023/07/22 05:10:11;;;;;;;0.00;0.00;;;;;;;15.87;78.89;99909.41;7355577;19;20481;-66
2023/07/22 05:12:38;;;;;;;0.03;0.03;;;;;;;15.90;78.87;99911.88;7357248;19;20493;-66
2023/07/22 05:15:04;;;;;;;0.10;0.10;;;;;;;15.93;78.69;99911.69;7355077;19;21437;-66
2023/07/22 05:17:31;;;;;;;0.10;0.10;;;;;;;15.94;78.86;99902.84;7355105;19;20011;-66
2023/07/22 05:19:57;;;;;;;0.10;0.10;;;;;;;15.98;78.59;99904.38;7353861;19;20030;-66
2023/07/22 05:22:22;;;;;;;0.10;0.10;;;;;;;16.00;79.09;99897.22;7354066;19;20020;-65
2023/07/22 05:24:47;;;;;;;0.00;0.00;;;;;;;16.00;78.66;99898.06;7350098;19;20050;-66
2023/07/22 05:27:13;;;;;;;0.08;0.08;;;;;;;16.06;78.78;99904.75;7353564;19;20018;-65
2023/07/22 05:29:38;;;;;;;0.10;0.10;;;;;;;16.09;78.66;99902.81;7352000;19;20033;-66
2023/07/22 05:32:04;;;;;;;0.10;0.10;;;;;;;16.13;78.88;99898.22;7350324;19;20113;-65
2023/07/22 05:34:29;;;;;;;0.10;0.10;;;;;;;16.15;78.51;99898.97;7354724;19;20024;-66
2023/07/22 05:36:55;;;;;;;0.10;0.10;;;;;;;16.17;79.08;99889.22;7348000;19;20037;-65
2023/07/22 05:39:20;;;;;;;0.03;0.03;;;;;;;16.20;78.88;99891.66;7354152;19;20023;-65
2023/07/22 05:41:46;;;;;;;0.10;0.10;;;;;;;16.24;78.72;99887.91;7339487;19;20017;-65
2023/07/22 05:44:14;;;;;;;0.10;0.10;;;;;;;16.28;78.75;99880.66;7355988;19;20533;-65
2023/07/22 05:46:39;;;;;;;0.10;0.10;;;;;;;16.29;78.80;99877.94;7349105;19;20007;-65
2023/07/22 05:49:05;;;;;;;0.10;0.10;;;;;;;16.30;78.94;99874.34;7357422;19;20025;-65
2023/07/22 05:51:30;;;;;;;0.10;0.10;;;;;;;16.35;78.92;99879.34;7358413;19;20456;-65
2023/07/22 05:53:58;;;;;;;0.10;0.10;;;;;;;16.08;78.70;99832.66;7359301;19;20478;-66
2023/07/22 05:56:23;;;;;;;0.10;0.10;;;;;;;16.38;78.89;99867.81;7364136;19;20006;-66
2023/07/22 05:58:49;;;;;;;0.10;0.10;;;;;;;16.40;78.67;99864.13;7353732;19;20025;-65
2023/07/22 06:01:14;;;;;;;0.10;0.10;;;;;;;16.45;78.83;99866.47;7357520;19;20043;-66
2023/07/22 06:03:40;;;;;;;0.10;0.10;;;;;;;16.43;78.62;99853.41;7358080;19;20022;-66
2023/07/22 06:06:05;;;;;;;0.10;0.10;;;;;;;16.51;78.39;99855.56;7360388;19;20022;-65
2023/07/22 06:08:31;;;;;;;0.10;0.10;;;;;;;16.52;78.57;99857.25;7358669;19;20242;-66
2023/07/22 06:10:56;;;;;;;0.08;0.08;;;;;;;16.55;78.17;99872.88;7359095;19;20810;-66
2023/07/22 06:13:24;;;;;;;0.10;0.10;;;;;;;16.58;78.58;99855.09;7357392;19;20007;-66
2023/07/22 06:15:49;;;;;;;;;;;;;;;16.67;77.50;99844.91;7355715;19;20014;-66
2023/07/22 06:18:14;;;;;;;0.10;0.10;;;;;;;16.66;77.84;99845.88;7359526;19;20374;-66
2023/07/22 06:20:40;;;;;;;0.10;0.10;;;;;;;16.67;77.96;99845.78;7357605;19;20487;-66
2023/07/22 06:23:05;;;;;;;0.10;0.10;;;;;;;16.66;77.78;99838.81;7357216;19;20493;-66
2023/07/22 06:25:31;;;;;;;0.10;0.10;;;;;;;16.70;77.59;99842.94;7352703;19;20029;-65
2023/07/22 06:27:59;;;;;;;0.10;0.10;;;;;;;16.71;78.25;99847.31;7347914;19;20022;-66
2023/07/22 06:30:24;;;;;;;0.10;0.10;;;;;;;16.74;78.05;99846.28;7352887;19;20639;-66
2023/07/22 06:32:50;;;;;;;0.10;0.10;;;;;;;16.74;78.20;99841.88;7358468;19;20014;-66
2023/07/22 06:35:15;;;;;;;0.10;0.10;;;;;;;16.71;78.44;99831.50;7358122;19;20002;-66
2023/07/22 06:37:40;;;;;;;0.10;0.10;;;;;;;16.78;78.15;99837.25;7354381;19;20010;-66
2023/07/22 06:40:06;;;;;;;0.10;0.10;;;;;;;16.79;77.94;99834.50;7359484;19;20014;-66
2023/07/22 06:42:34;;;;;;;0.10;0.10;;;;;;;16.81;78.41;99829.97;7354623;19;20022;-66
2023/07/22 06:45:00;;;;;;;0.10;0.10;;;;;;;16.82;78.10;99836.09;7356364;19;20625;-66
2023/07/22 06:47:27;;;;;;;0.20;0.20;;;;;;;16.84;78.62;99829.81;7357384;19;20044;-66
2023/07/22 06:49:53;;;;;;;;;;;;;;;16.91;77.02;99832.06;7353022;19;20014;-66
2023/07/22 06:52:18;;;;;;;0.10;0.10;;;;;;;16.89;77.98;99833.94;7357841;19;19926;-66
2023/07/22 06:54:44;;;;;;;0.10;0.10;;;;;;;16.76;78.08;99808.31;7357615;19;20021;-66
2023/07/22 06:57:09;;;;;;;0.03;0.03;;;;;;;16.77;78.00;99799.47;7349121;19;20029;-66
2023/07/22 06:59:34;;;;;;;0.10;0.10;;;;;;;16.92;78.50;99831.09;7356288;19;20465;-66
2023/07/22 07:02:01;;;;;;;0.10;0.10;;;;;;;16.81;78.28;99794.84;7353977;19;20018;-66
2023/07/22 07:04:27;;;;;;;0.10;0.10;;;;;;;16.84;78.16;99813.97;7357527;19;20014;-66
2023/07/22 07:06:52;;;;;;;0.00;0.00;;;;;;;16.96;78.54;99819.41;7357661;19;20476;-66
2023/07/22 07:09:17;;;;;;;0.10;0.10;;;;;;;16.98;78.53;99818.41;7356627;19;20018;-66
2023/07/22 07:11:43;;;;;;;0.08;0.08;;;;;;;17.01;78.56;99817.34;7357518;19;20476;-66
2023/07/22 07:14:08;;;;;;;0.10;0.10;;;;;;;17.03;78.62;99820.72;7355431;19;20474;-65
2023/07/22 07:16:35;;;;;;;0.10;0.10;;;;;;;17.06;78.67;99817.88;7352543;19;20015;-66
2023/07/22 07:19:01;;;;;;;0.10;0.10;;;;;;;17.09;78.54;99807.16;7356411;19;20041;-66
2023/07/22 07:21:26;;;;;;;0.10;0.10;;;;;;;17.05;78.72;99803.00;7360356;19;20014;-67
2023/07/22 07:23:53;;;;;;;0.10;0.10;;;;;;;17.15;78.63;99809.41;7353636;19;20019;-66
2023/07/22 07:26:22;;;;;;;0.10;0.10;;;;;;;17.14;78.41;99796.31;7356969;19;20010;-66
2023/07/22 07:28:48;;;;;;;0.00;0.00;;;;;;;17.20;78.37;99807.31;7352034;19;20047;-66
2023/07/22 07:31:16;;;;;;;0.05;0.05;;;;;;;17.22;78.48;99805.41;7356894;19;20052;-67
2023/07/22 07:33:42;;;;;;;0.10;0.10;;;;;;;17.27;78.26;99808.59;7352384;19;20018;-66
2023/07/22 07:36:07;;;;;;;0.10;0.10;;;;;;;17.27;78.54;99803.31;7353378;19;20470;-67
2023/07/22 07:38:32;;;;;;;0.10;0.10;;;;;;;17.32;78.43;99800.38;7354605;19;20014;-66
2023/07/22 07:40:59;;;;;;;0.10;0.10;;;;;;;17.38;78.49;99802.63;7348308;19;20018;-67
2023/07/22 07:43:28;;;;;;;0.10;0.10;;;;;;;17.29;78.39;99782.97;7355984;19;20015;-67
2023/07/22 07:46:17;;;;;;;0.00;0.00;;;;;;;17.48;78.23;99800.22;7349781;19;20748;-67
2023/07/22 07:48:43;;;;;;;0.10;0.10;;;;;;;17.32;78.17;99782.75;7350768;19;20782;-67
2023/07/22 07:51:12;;;;;;;0.10;0.10;;;;;;;17.43;78.24;99781.22;7354001;19;20015;-67
2023/07/22 07:53:37;;;;;;;0.10;0.10;;;;;;;17.48;78.53;99795.78;7349722;19;20496;-67
2023/07/22 07:56:03;;;;;;;0.10;0.10;;;;;;;17.51;78.64;99794.75;7358442;19;20034;-67
2023/07/22 07:58:30;;;;;;;0.10;0.10;;;;;;;17.53;78.50;99790.22;7356835;19;20847;-67
2023/07/22 08:00:56;;;;;;;;;;;;;;;17.61;77.32;99793.19;7353738;19;20022;-67
2023/07/22 08:03:21;;;;;;;0.10;0.10;;;;;;;17.56;78.04;99793.50;7351267;19;19926;-67
2023/07/22 08:05:47;;;;;;;0.10;0.10;;;;;;;17.56;78.25;99792.66;7350409;19;20026;-67
2023/07/22 08:08:12;;;;;;;0.03;0.03;;;;;;;17.55;78.60;99790.97;7356872;19;20036;-67
2023/07/22 08:10:38;;;;;;;0.10;0.10;;;;;;;17.55;78.32;99790.97;7349823;19;20025;-66
2023/07/22 08:13:06;;;;;;;0.10;0.10;;;;;;;17.55;78.31;99780.41;7353576;19;20023;-66
2023/07/22 08:15:31;;;;;;;;;;;;;;;17.43;77.40;99749.53;7358852;19;20117;-65
2023/07/22 08:17:57;;;;;;;0.10;0.10;;;;;;;17.56;78.15;99779.47;7352122;19;20013;-66
2023/07/22 08:20:22;;;;;;;0.03;0.03;;;;;;;17.51;78.32;99768.38;7354111;19;20457;-64
2023/07/22 08:22:47;;;;;;;0.10;0.10;;;;;;;17.38;78.22;99747.19;7354359;19;20010;-65
2023/07/22 08:25:13;;;;;;;0.10;0.10;;;;;;;17.52;78.38;99770.88;7350836;19;20588;-65
2023/07/22 08:27:38;;;;;;;0.10;0.10;;;;;;;17.52;78.88;99767.41;7353240;19;20011;-65
2023/07/22 08:30:08;;;;;;;0.10;0.10;;;;;;;17.51;78.97;99771.00;7355894;19;20014;-66
2023/07/22 08:32:33;;;;;;;0.10;0.10;;;;;;;17.51;78.67;99766.56;7353601;19;20358;-66
2023/07/22 08:35:01;;;;;;;0.10;0.10;;;;;;;17.53;79.00;99774.38;7354624;19;20002;-66
2023/07/22 08:37:26;;;;;;;0.10;0.10;;;;;;;17.54;78.91;99757.59;7347780;19;20006;-66
2023/07/22 08:39:52;;;;;;;0.10;0.10;;;;;;;17.57;79.17;99757.38;7354307;19;20066;-66
2023/07/22 08:42:36;;;;;;;0.10;0.10;;;;;;;17.58;79.15;99754.63;7352176;19;20029;-67
2023/07/22 08:45:04;;;;;;;0.08;0.08;;;;;;;17.63;79.19;99756.97;7337884;19;20351;-65
2023/07/22 08:47:32;;;;;;;0.00;0.00;;;;;;;17.57;79.35;99738.91;7342714;19;20016;-65
2023/07/22 08:50:01;;;;;;;0.10;0.10;;;;;;;17.67;79.25;99742.63;7347881;19;20819;-66
2023/07/22 08:52:27;;;;;;;0.10;0.10;;;;;;;17.70;78.98;99747.72;7351606;19;20010;-66
2023/07/22 08:54:54;;;;;;;0.10;0.10;;;;;;;17.53;79.11;99719.78;7343295;19;20046;-67
2023/07/22 08:57:21;;;;;;;0.10;0.10;;;;;;;17.78;79.09;99745.41;7349056;19;20017;-67
2023/07/22 08:59:47;;;;;;;0.10;0.10;;;;;;;17.80;79.52;99748.81;7353387;19;20039;-61
2023/07/22 09:02:13;;;;;;;0.00;0.00;;;;;;;17.85;79.48;99749.34;7354971;19;20006;-67
2023/07/22 09:04:40;;;;;;;0.03;0.03;;;;;;;17.89;79.36;99747.31;7351009;19;20018;-67
2023/07/22 09:07:07;;;;;;;0.00;0.00;;;;;;;17.94;79.38;99736.44;7353886;19;20017;-66
2023/07/22 09:09:36;;;;;;;0.00;0.00;;;;;;;17.96;79.29;99731.91;7353777;19;20026;-67
2023/07/22 09:12:02;;;;;;;0.10;0.10;;;;;;;18.03;79.05;99734.00;7354204;19;20010;-67
2023/07/22 09:14:32;;;;;;;0.00;0.00;;;;;;;18.08;79.51;99737.19;7349687;19;20011;-67
2023/07/22 09:16:58;;;;;;;0.10;0.10;;;;;;;18.14;79.13;99730.63;7354814;19;20027;-67
2023/07/22 09:19:23;;;;;;;0.10;0.10;;;;;;;18.20;79.40;99724.94;7354721;19;20029;-67
2023/07/22 09:21:49;;;;;;;0.10;0.10;;;;;;;18.16;79.50;99715.53;7353296;19;20053;-67
2023/07/22 09:24:25;;;;;;;0.10;0.10;;;;;;;18.38;79.18;99728.91;7352262;19;20010;-67
2023/07/22 09:26:51;;;;;;;0.10;0.10;;;;;;;18.42;79.08;99729.56;7354356;19;20674;-67
2023/07/22 09:29:16;;;;;;;0.10;0.10;;;;;;;18.52;79.14;99735.03;7355777;19;20011;-67
2023/07/22 09:31:52;;;;;;;0.10;0.10;;;;;;;18.65;79.07;99730.53;7354134;19;20019;-66
2023/07/22 09:34:17;;;;;;;0.10;0.10;;;;;;;18.70;78.84;99733.75;7352784;19;20014;-66
2023/07/22 09:36:54;;;;;;;0.10;0.10;;;;;;;18.78;78.61;99720.81;7348542;19;20023;-67
2023/07/22 09:39:21;;;;;;;0.00;0.00;;;;;;;18.84;78.50;99717.72;7329869;19;20042;-67
2023/07/22 09:41:47;;;;;;;0.10;0.10;;;;;;;18.92;78.88;99717.19;7345102;19;20698;-63
2023/07/22 09:44:12;;;;;;;0.03;0.03;;;;;;;18.97;78.62;99708.91;7349495;19;20022;-67
2023/07/22 09:46:38;;;;;;;0.00;0.00;;;;;;;19.02;78.79;99712.91;7351369;19;20772;-67
2023/07/22 09:49:08;;;;;;;0.10;0.10;;;;;;;19.17;78.39;99716.22;7352804;19;20014;-67
2023/07/22 09:51:38;;;;;;;0.10;0.10;;;;;;;19.25;78.69;99718.28;7346182;19;20546;-66
2023/07/22 09:54:05;;;;;;;0.10;0.10;;;;;;;19.26;78.38;99718.19;7350915;19;20049;-67
2023/07/22 09:56:54;;;;;;;0.10;0.10;;;;;;;19.31;78.05;99713.41;7350800;19;20455;-67
2023/07/22 09:59:22;;;;;;;0.10;0.10;;;;;;;19.41;78.49;99718.81;7244263;19;2004357;-67
2023/07/22 10:01:50;;;;;;;0.10;0.10;;;;;;;19.45;77.92;99709.69;7352394;19;20641;-64
2023/07/22 10:04:16;;;;;;;;;;;;;;;19.58;77.81;99714.94;7343257;19;20002;-68
2023/07/22 10:06:42;;;;;;;0.10;0.10;;;;;;;19.57;77.85;99713.25;7350081;19;19923;-67
2023/07/22 10:09:11;;;;;;;0.10;0.10;;;;;;;19.64;77.86;99719.78;7347000;19;20010;-67
2023/07/22 10:11:45;;;;;;;0.00;0.00;;;;;;;19.63;77.56;99702.22;7353473;19;20049;-67
2023/07/22 10:14:12;;;;;;;0.10;0.10;;;;;;;19.73;77.92;99719.09;7352683;19;20099;-67
2023/07/22 10:16:38;;;;;;;0.10;0.10;;;;;;;19.77;78.10;99709.94;7347072;19;21950;-66
2023/07/22 10:19:04;;;;;;;0.10;0.10;;;;;;;19.83;77.86;99709.47;7345663;19;20011;-67
2023/07/22 10:21:30;;;;;;;0.10;0.10;;;;;;;19.86;77.54;99706.56;7349111;19;20013;-66
2023/07/22 10:24:02;;;;;;;0.10;0.10;;;;;;;19.90;77.33;99709.84;7351901;19;20007;-67
2023/07/22 10:26:28;;;;;;;0.10;0.10;;;;;;;19.92;77.68;99711.44;7352641;19;20486;-67
2023/07/22 10:28:56;;;;;;;0.10;0.10;;;;;;;19.99;77.87;99713.59;7345026;19;20024;-67
2023/07/22 10:31:22;;;;;;;0.10;0.10;;;;;;;19.98;77.52;99706.59;7352180;19;20014;-67
2023/07/22 10:33:48;;;;;;;0.10;0.10;;;;;;;19.88;77.29;99691.41;7354646;19;20103;-62
2023/07/22 10:36:18;;;;;;;0.00;0.00;;;;;;;19.81;77.47;99676.94;7353528;19;20647;-67
2023/07/22 10:38:54;;;;;;;0.10;0.10;;;;;;;20.07;78.04;99700.56;7355751;19;20362;-67
2023/07/22 10:41:21;;;;;;;0.10;0.10;;;;;;;20.00;77.65;99683.47;7354139;19;20006;-67
2023/07/22 10:43:58;;;;;;;0.10;0.10;;;;;;;20.20;77.64;99696.00;7357950;19;20075;-66
2023/07/22 10:46:34;;;;;;;0.10;0.10;;;;;;;20.29;77.61;99705.91;7359775;19;20183;-67
2023/07/22 10:49:16;;;;;;;0.05;0.05;;;;;;;20.24;77.74;99689.50;7352499;19;20854;-68
2023/07/22 10:51:50;;;;;;;0.10;0.10;;;;;;;20.38;77.66;99699.88;7351287;19;20031;-68
2023/07/22 10:54:33;;;;;;;0.10;0.10;;;;;;;20.43;77.38;99703.00;7351487;19;20017;-68
2023/07/22 10:57:03;;;;;;;0.10;0.10;;;;;;;20.30;77.50;99673.09;7353213;19;20048;-67
2023/07/22 10:59:33;;;;;;;0.10;0.10;;;;;;;20.44;77.30;99691.41;7357370;19;20014;-67
2023/07/22 11:01:59;;;;;;;0.15;0.15;;;;;;;20.43;77.72;99687.09;7353758;19;23082;-68
2023/07/22 11:04:35;;;;;;;0.05;0.05;;;;;;;20.46;77.69;99692.16;7355112;19;20031;-65
2023/07/22 11:07:04;;;;;;;0.00;0.00;;;;;;;20.47;77.76;99688.53;7353379;19;20014;-66
2023/07/22 11:09:33;;;;;;;0.10;0.10;;;;;;;20.54;77.49;99694.22;7354268;19;20023;-66
2023/07/22 11:12:01;;;;;;;0.10;0.10;;;;;;;20.65;77.77;99685.38;7355553;19;20030;-64
2023/07/22 11:14:29;;;;;;;0.10;0.10;;;;;;;20.71;77.13;99687.53;7351765;19;20010;-64
2023/07/22 11:16:58;;;;;;;0.10;0.10;;;;;;;20.81;77.32;99685.81;7355080;19;20018;-67
2023/07/22 11:19:25;;;;;;;0.10;0.10;;;;;;;20.88;77.55;99681.72;7353523;19;20051;-64
2023/07/22 11:21:52;;;;;;;0.10;0.10;;;;;;;20.94;76.81;99680.38;7348464;19;20561;-66
2023/07/22 11:24:18;;;;;;;0.10;0.10;;;;;;;20.95;76.68;99676.75;7351858;19;19999;-66
2023/07/22 11:26:48;;;;;;;0.10;0.10;;;;;;;20.97;76.73;99672.97;7352999;19;20461;-65
2023/07/22 11:29:15;;;;;;;0.10;0.10;;;;;;;20.97;76.95;99665.00;7351356;19;20376;-66
2023/07/22 11:31:44;;;;;;;0.10;0.10;;;;;;;21.02;76.90;99661.97;7355074;19;20533;-66
2023/07/22 11:34:10;;;;;;;0.10;0.10;;;;;;;21.03;76.83;99660.16;7331306;19;20014;-65